createdAt,value
2022-11-10T05:08:34.922Z,7.60
2022-11-10T05:11:01.498Z,7.70
2022-11-10T05:13:28.337Z,7.60
2022-11-10T05:15:54.897Z,7.50
2022-11-10T05:18:21.459Z,7.50
2022-11-10T05:20:48.006Z,7.50
2022-11-10T05:23:32.999Z,7.40
2022-11-10T05:25:59.566Z,7.20
2022-11-10T05:28:26.496Z,7.30
2022-11-10T05:30:53.038Z,7.10
2022-11-10T05:33:20.059Z,7.10
2022-11-10T05:35:49.946Z,7.00
2022-11-10T05:38:17.075Z,7.00
2022-11-10T05:40:43.891Z,7.00
2022-11-10T05:43:11.288Z,7.00
2022-11-10T05:45:37.864Z,7.00
2022-11-10T05:48:04.569Z,6.90
2022-11-10T05:50:31.110Z,6.90
2022-11-10T05:52:57.681Z,6.90
2022-11-10T05:55:27.674Z,6.90
2022-11-10T05:57:56.674Z,6.90
2022-11-10T06:00:26.155Z,6.80
2022-11-10T06:03:04.579Z,6.80
2022-11-10T06:05:34.339Z,6.70
2022-11-10T06:08:01.967Z,6.70
2022-11-10T06:10:29.286Z,6.70
2022-11-10T06:12:56.423Z,6.70
2022-11-10T06:15:23.655Z,6.70
2022-11-10T06:17:50.526Z,6.70
2022-11-10T06:20:17.577Z,6.70
2022-11-10T06:22:45.282Z,6.80
2022-11-10T06:25:12.021Z,6.80
2022-11-10T06:27:42.629Z,6.80
2022-11-10T06:30:10.071Z,6.80
2022-11-10T06:32:36.948Z,6.80
2022-11-10T06:35:03.769Z,6.80
2022-11-10T06:37:30.525Z,6.90
2022-11-10T06:39:57.110Z,6.90
2022-11-10T06:42:23.676Z,7.00
2022-11-10T06:44:50.526Z,6.90
2022-11-10T06:47:17.667Z,6.90
2022-11-10T06:49:44.260Z,7.00
2022-11-10T06:52:10.791Z,7.00
2022-11-10T06:54:37.357Z,7.10
2022-11-10T06:57:03.997Z,7.20
2022-11-10T08:08:22.681Z,8.90
2022-11-10T08:10:49.229Z,8.90
2022-11-10T08:13:15.841Z,9.00
2022-11-10T08:15:42.469Z,9.00
2022-11-10T08:18:19.147Z,9.00
2022-11-10T08:20:45.833Z,9.10
2022-11-10T08:23:12.745Z,9.20
2022-11-10T08:25:39.561Z,9.20
2022-11-10T08:28:17.146Z,9.40
2022-11-10T08:30:45.639Z,9.50
2022-11-10T08:33:14.143Z,9.50
2022-11-10T08:35:43.902Z,9.60
2022-11-10T08:38:21.488Z,9.70
2022-11-10T08:40:48.636Z,9.80
2022-11-10T08:43:16.116Z,9.90
2022-11-10T08:45:44.481Z,10.00
2022-11-10T08:48:14.556Z,10.10
2022-11-10T08:50:41.918Z,10.20
2022-11-10T08:53:14.478Z,10.20
2022-11-10T08:55:42.022Z,10.40
2022-11-10T08:58:12.457Z,10.40
2022-11-10T09:00:39.266Z,10.50
2022-11-10T09:03:14.511Z,10.70
2022-11-10T09:05:41.814Z,10.90
2022-11-10T09:08:09.498Z,11.00
2022-11-10T09:10:41.838Z,11.20
2022-11-10T09:13:08.660Z,11.40
2022-11-10T09:15:35.642Z,11.50
2022-11-10T09:18:04.240Z,11.60
2022-11-10T09:20:33.746Z,11.70
2022-11-10T15:46:42.162Z,11.30
2022-11-10T15:49:16.916Z,11.10
2022-11-10T15:51:43.616Z,10.50
2022-11-10T15:54:11.377Z,10.90
2022-11-10T15:56:37.920Z,10.80
2022-11-10T15:59:04.508Z,10.70
2022-11-10T16:01:31.407Z,10.50
2022-11-10T16:03:58.042Z,10.40
2022-11-10T16:06:24.576Z,10.30
2022-11-10T16:08:51.107Z,10.30
2022-11-10T16:11:20.792Z,10.20
2022-11-10T16:13:49.644Z,10.10
2022-11-10T16:16:20.249Z,9.90
2022-11-10T16:18:46.812Z,9.90
2022-11-10T16:21:15.210Z,9.80
2022-11-10T16:23:42.758Z,9.70
2022-11-10T16:26:15.997Z,9.50
2022-11-10T16:28:44.173Z,9.40
2022-11-10T16:31:11.923Z,9.40
2022-11-10T16:33:41.944Z,9.30
2022-11-10T16:36:31.651Z,9.20
2022-11-10T16:39:02.072Z,9.10
2022-11-10T16:41:28.753Z,9.10
2022-11-10T16:43:55.281Z,9.00
2022-11-10T16:46:22.982Z,9.00
2022-11-10T16:48:52.205Z,8.90
2022-11-10T16:51:18.774Z,8.80
2022-11-10T16:53:45.590Z,8.80
2022-11-10T16:56:14.607Z,8.80
2022-11-10T16:58:41.146Z,8.80
2022-11-10T17:01:16.871Z,8.70
2022-11-10T17:03:45.854Z,8.60
2022-11-10T17:06:14.572Z,8.60
2022-11-10T17:08:42.118Z,8.50
2022-11-10T17:11:09.892Z,8.50
2022-11-10T17:13:36.466Z,8.40
2022-11-10T17:16:13.169Z,8.30
2022-11-10T17:18:39.789Z,8.40
2022-11-10T17:21:07.172Z,8.30
2022-11-10T17:23:35.339Z,8.20
2022-11-10T17:26:02.097Z,8.10
2022-11-10T17:28:28.623Z,8.00
2022-11-10T17:30:56.171Z,8.00
2022-11-10T17:33:22.996Z,8.00
2022-11-10T17:35:52.441Z,8.00
2022-11-10T17:38:30.421Z,7.90
2022-11-10T17:40:57.273Z,7.90
2022-11-10T17:43:24.276Z,7.90
2022-11-10T17:45:51.469Z,7.90
2022-11-10T17:48:18.030Z,8.00
2022-11-10T17:50:46.705Z,8.00
2022-11-10T17:53:25.438Z,8.00
2022-11-10T17:55:52.311Z,8.00
2022-11-10T17:58:18.945Z,8.00
2022-11-10T18:00:46.171Z,8.00
2022-11-10T18:03:19.159Z,8.00
2022-11-10T18:05:46.572Z,7.90
2022-11-10T18:08:14.544Z,7.90
2022-11-10T18:10:42.732Z,7.80
2022-11-10T18:13:10.633Z,7.80
2022-11-10T18:15:40.755Z,7.90
2022-11-10T18:18:11.243Z,7.80
2022-11-10T18:20:37.773Z,7.70
2022-11-10T18:23:04.374Z,7.70
2022-11-10T18:25:30.897Z,7.60
2022-11-10T18:27:57.421Z,7.60
2022-11-10T18:30:23.956Z,7.50
2022-11-10T18:32:50.534Z,7.50
2022-11-10T18:35:17.744Z,7.50
2022-11-10T18:37:44.307Z,7.40
2022-11-10T18:40:11.483Z,7.40
2022-11-10T18:42:38.096Z,7.30
2022-11-10T18:45:05.054Z,7.30
2022-11-10T18:47:31.615Z,7.20
2022-11-10T18:49:58.197Z,7.10
2022-11-10T18:52:24.746Z,7.10
2022-11-10T18:54:51.328Z,7.10
2022-11-10T18:57:17.910Z,7.20
2022-11-10T18:59:44.834Z,7.20
2022-11-10T19:02:12.442Z,7.20
2022-11-10T19:04:39.316Z,7.20
2022-11-10T19:07:06.353Z,7.10
2022-11-10T19:09:33.163Z,7.00
2022-11-10T19:11:59.729Z,7.10
2022-11-10T19:14:26.268Z,7.00
2022-11-10T19:16:52.880Z,7.00
2022-11-10T19:19:19.399Z,6.90
2022-11-10T19:21:45.972Z,6.90
2022-11-10T19:24:18.162Z,6.90
2022-11-10T19:26:52.746Z,6.80
2022-11-10T19:29:19.511Z,6.90
2022-11-10T19:31:46.842Z,6.90
2022-11-10T19:34:13.441Z,6.90
2022-11-10T19:36:40.022Z,6.90
2022-11-10T19:39:07.436Z,6.80
2022-11-10T19:41:35.665Z,6.70
2022-11-10T19:44:02.386Z,6.70
2022-11-10T19:46:34.018Z,6.80
2022-11-10T19:49:00.610Z,6.70
2022-11-10T19:51:28.465Z,6.70
2022-11-10T19:54:01.205Z,6.70
2022-11-10T19:56:32.347Z,6.70
2022-11-10T19:58:59.512Z,6.60
2022-11-10T20:01:26.627Z,6.60
2022-11-10T20:03:53.374Z,6.70
2022-11-10T20:06:22.493Z,6.60
2022-11-10T20:08:50.131Z,6.60
2022-11-10T20:11:27.023Z,6.60
2022-11-10T20:14:00.267Z,6.50
2022-11-10T20:16:26.865Z,7.60
2022-11-10T20:18:53.484Z,6.30
2022-11-10T20:21:23.502Z,6.30
2022-11-10T20:23:55.286Z,6.20
2022-11-10T20:26:22.731Z,6.20
2022-11-10T20:28:49.450Z,6.10
2022-11-10T20:31:23.475Z,6.00
2022-11-10T20:33:52.208Z,6.00
2022-11-10T20:36:30.565Z,6.10
2022-11-10T20:39:00.311Z,6.10
2022-11-10T20:41:28.621Z,6.00
2022-11-10T20:43:55.532Z,6.00
2022-11-10T20:46:48.035Z,5.90
2022-11-10T20:49:09.286Z,5.90
2022-11-10T20:51:35.855Z,5.90
2022-11-10T20:54:02.455Z,5.90
2022-11-10T20:56:30.213Z,5.90
2022-11-10T20:58:57.445Z,5.90
2022-11-10T21:01:24.604Z,5.90
2022-11-10T21:03:51.655Z,6.00
2022-11-10T21:06:18.575Z,5.90
2022-11-10T21:08:45.472Z,5.80
2022-11-10T21:11:32.659Z,5.80
2022-11-10T21:13:59.674Z,5.80
2022-11-10T21:16:26.293Z,5.70
2022-11-10T21:18:55.929Z,5.70
2022-11-10T21:21:27.821Z,5.60
2022-11-10T21:23:57.125Z,5.50
2022-11-10T21:28:51.179Z,5.40
2022-11-10T21:31:18.578Z,5.40
2022-11-10T21:33:45.527Z,5.50
2022-11-10T21:36:12.070Z,5.50
2022-11-10T21:38:38.709Z,5.60
2022-11-10T21:41:05.473Z,5.60
2022-11-10T21:43:32.087Z,5.60
2022-11-10T21:46:01.542Z,5.60
2022-11-10T21:48:28.134Z,5.60
2022-11-10T22:41:51.089Z,5.20
2022-11-10T22:44:19.431Z,5.10
2022-11-10T22:46:50.920Z,5.00
2022-11-10T22:49:19.026Z,5.00
2022-11-10T22:51:51.672Z,5.00
2022-11-10T22:54:19.749Z,5.00
2022-11-10T22:56:48.001Z,5.00
2022-11-10T22:59:15.539Z,5.10
2022-11-10T23:01:43.533Z,5.00
2022-11-10T23:04:11.462Z,5.00
2022-11-10T23:06:39.367Z,4.90
2022-11-10T23:09:06.574Z,4.80
2022-11-10T23:11:33.858Z,4.80
2022-11-10T23:14:00.530Z,4.70
2022-11-10T23:18:57.798Z,4.70
2022-11-10T23:21:29.404Z,4.70
2022-11-10T23:23:56.375Z,4.70
2022-11-10T23:26:25.719Z,4.70
2022-11-10T23:28:53.096Z,4.80
2022-11-10T23:33:51.265Z,4.70
2022-11-10T23:36:18.973Z,4.70
2022-11-10T23:38:48.498Z,4.70
2022-11-10T23:41:20.191Z,4.70
2022-11-10T23:43:47.384Z,4.60
2022-11-10T23:46:14.027Z,4.60
2022-11-10T23:48:41.187Z,4.70
2022-11-10T23:51:11.505Z,4.80
2022-11-10T23:53:38.158Z,4.80
2022-11-10T23:56:07.415Z,4.80
2022-11-10T23:58:33.995Z,4.80
